createdAt,value
2022-09-28T00:01:42.291Z,8.60
2022-09-28T00:07:44.213Z,8.60
2022-09-28T00:13:52.685Z,8.50
2022-09-28T00:19:56.770Z,8.60
2022-09-28T00:26:03.623Z,8.60
2022-09-28T00:32:15.599Z,8.70
2022-09-28T00:38:17.521Z,8.70
2022-09-28T00:44:40.260Z,8.70
2022-09-28T00:50:45.169Z,8.70
2022-09-28T00:56:48.205Z,8.70
2022-09-28T01:02:50.736Z,8.70
2022-09-28T01:08:55.272Z,8.80
2022-09-28T01:15:04.489Z,8.70
2022-09-28T01:21:20.207Z,8.70
2022-09-28T01:27:59.527Z,8.70
2022-09-28T01:34:16.178Z,8.70
2022-09-28T01:40:21.015Z,8.60
2022-09-28T01:46:28.701Z,8.60
2022-09-28T01:52:59.479Z,8.60
2022-09-28T01:59:19.950Z,8.60
2022-09-28T02:05:31.201Z,8.70
2022-09-28T02:11:37.762Z,8.60
2022-09-28T02:17:41.222Z,8.60
2022-09-28T02:23:57.247Z,8.60
2022-09-28T02:29:59.782Z,8.60
2022-09-28T02:36:03.855Z,8.60
2022-09-28T02:42:25.752Z,8.60
2022-09-28T02:49:10.526Z,8.50
2022-09-28T02:55:41.978Z,8.50
2022-09-28T03:02:01.518Z,8.50
2022-09-28T03:08:09.442Z,8.50
2022-09-28T03:14:12.308Z,8.50
2022-09-28T03:20:21.615Z,8.40
2022-09-28T03:26:23.608Z,8.40
2022-09-28T03:32:25.493Z,8.50
2022-09-28T03:38:27.608Z,8.40
2022-09-28T03:44:29.695Z,8.40
2022-09-28T03:50:31.649Z,8.50
2022-09-28T03:56:33.670Z,8.40
2022-09-28T04:02:35.756Z,8.40
2022-09-28T04:08:38.411Z,8.50
2022-09-28T04:14:40.414Z,8.50
2022-09-28T04:20:45.405Z,8.40
2022-09-28T04:26:49.483Z,8.40
2022-09-28T04:32:52.613Z,8.50
2022-09-28T04:38:54.835Z,8.50
2022-09-28T04:45:00.993Z,8.40
2022-09-28T04:51:03.679Z,8.50
2022-09-28T04:57:06.190Z,8.50
2022-09-28T05:03:08.198Z,8.50
2022-09-28T05:09:39.442Z,8.60
2022-09-28T05:15:42.076Z,8.60
2022-09-28T05:21:48.787Z,8.60
2022-09-28T05:27:57.092Z,8.70
2022-09-28T05:34:12.308Z,8.70
2022-09-28T05:40:14.951Z,8.70
2022-09-28T05:46:22.051Z,8.70
2022-09-28T05:52:24.242Z,8.70
2022-09-28T05:58:26.265Z,8.70
2022-09-28T06:04:29.402Z,8.80
2022-09-28T06:10:32.095Z,8.80
2022-09-28T06:16:38.250Z,8.90
2022-09-28T06:22:44.037Z,8.90
2022-09-28T06:28:46.324Z,8.90
2022-09-28T06:34:50.700Z,8.90
2022-09-28T06:40:54.725Z,8.90
2022-09-28T06:46:57.078Z,8.80
2022-09-28T06:53:25.229Z,8.90
2022-09-28T06:59:54.927Z,9.00
2022-09-28T07:05:57.274Z,9.20
2022-09-28T07:12:18.421Z,9.30
2022-09-28T07:18:38.384Z,9.40
2022-09-28T07:24:41.490Z,9.40
2022-09-28T07:31:03.624Z,9.40
2022-09-28T07:37:28.256Z,9.30
2022-09-28T07:43:30.305Z,9.30
2022-09-28T07:49:32.811Z,9.30
2022-09-28T07:56:02.091Z,9.30
2022-09-28T08:02:24.540Z,9.30
2022-09-28T08:08:27.509Z,9.30
2022-09-28T08:14:32.236Z,9.50
2022-09-28T08:21:03.020Z,10.00
2022-09-28T08:27:05.227Z,10.40
2022-09-28T08:33:08.250Z,10.50
2022-09-28T08:39:30.387Z,10.70
2022-09-28T08:45:52.590Z,10.80
2022-09-28T08:52:30.516Z,10.90
2022-09-28T08:58:45.536Z,10.80
2022-09-28T09:04:47.691Z,10.70
2022-09-28T09:11:10.638Z,10.70
2022-09-28T09:17:25.050Z,10.80
2022-09-28T09:23:43.274Z,10.80
2022-09-28T09:30:26.210Z,11.00
2022-09-28T09:36:34.213Z,11.20
2022-09-28T09:43:14.265Z,11.20
2022-09-28T09:49:45.871Z,11.10
2022-09-28T09:55:57.478Z,11.30
2022-09-28T10:02:30.396Z,11.40
2022-09-28T10:09:06.784Z,11.60
2022-09-28T10:15:35.486Z,11.80
2022-09-28T10:21:58.570Z,12.00
2022-09-28T10:28:06.421Z,12.00
2022-09-28T10:34:14.017Z,11.80
2022-09-28T10:40:30.609Z,11.70
2022-09-28T10:46:35.010Z,11.70
2022-09-28T10:52:46.535Z,11.80
2022-09-28T10:59:29.665Z,12.00
2022-09-28T11:06:08.807Z,12.10
2022-09-28T11:12:17.223Z,12.10
2022-09-28T11:18:33.715Z,12.00
2022-09-28T11:24:39.902Z,11.80
2022-09-28T11:30:51.988Z,11.50
2022-09-28T11:37:50.149Z,11.20
2022-09-28T11:44:31.018Z,10.90
2022-09-28T11:50:54.057Z,11.00
2022-09-28T11:56:59.934Z,11.20
2022-09-28T12:03:06.140Z,11.50
2022-09-28T12:09:41.886Z,11.80
2022-09-28T12:16:23.013Z,12.60
2022-09-28T12:22:35.618Z,13.30
2022-09-28T12:28:49.051Z,13.20
2022-09-28T12:34:50.908Z,13.10
2022-09-28T12:41:19.838Z,13.70
2022-09-28T12:47:36.937Z,13.80
2022-09-28T12:53:41.725Z,13.50
2022-09-28T13:00:02.240Z,13.30
2022-09-28T13:06:23.359Z,13.00
2022-09-28T13:12:42.265Z,12.70
2022-09-28T13:18:57.312Z,12.50
2022-09-28T13:25:05.975Z,12.50
2022-09-28T13:31:09.653Z,12.50
2022-09-28T13:37:16.824Z,12.40
2022-09-28T13:43:33.095Z,12.20
2022-09-28T13:49:49.932Z,12.10
2022-09-28T13:56:03.677Z,12.00
2022-09-28T14:02:33.815Z,11.90
2022-09-28T14:08:52.214Z,12.00
2022-09-28T14:14:54.221Z,12.10
2022-09-28T14:21:30.129Z,12.30
2022-09-28T14:27:41.832Z,12.30
2022-09-28T14:33:57.011Z,12.40
2022-09-28T14:40:17.252Z,12.90
2022-09-28T14:46:19.346Z,12.90
2022-09-28T14:52:43.497Z,12.50
2022-09-28T14:58:47.791Z,12.20
2022-09-28T15:04:54.728Z,11.70
2022-09-28T15:10:58.742Z,11.50
2022-09-28T15:17:08.625Z,11.70
2022-09-28T15:23:37.208Z,11.80
2022-09-28T15:29:41.036Z,11.70
2022-09-28T15:35:45.764Z,11.60
2022-09-28T15:41:50.305Z,11.40
2022-09-28T15:47:57.668Z,11.30
2022-09-28T15:54:12.982Z,11.30
2022-09-28T16:00:21.044Z,11.40
2022-09-28T16:06:24.352Z,11.40
2022-09-28T16:12:36.305Z,11.20
2022-09-28T16:18:40.511Z,11.10
2022-09-28T16:24:42.602Z,10.90
2022-09-28T16:31:04.769Z,10.60
2022-09-28T16:37:42.634Z,10.40
2022-09-28T16:43:45.788Z,10.10
2022-09-28T16:49:48.631Z,10.00
2022-09-28T16:55:50.952Z,10.00
2022-09-28T17:01:53.169Z,9.90
2022-09-28T17:08:03.823Z,9.90
2022-09-28T17:14:06.042Z,9.90
2022-09-28T17:20:27.477Z,9.90
2022-09-28T17:26:34.615Z,10.00
2022-09-28T17:32:37.221Z,9.90
2022-09-28T17:38:39.239Z,9.90
2022-09-28T17:44:41.094Z,9.80
2022-09-28T17:50:46.615Z,9.80
2022-09-28T17:56:48.579Z,9.70
2022-09-28T18:02:51.355Z,9.70
2022-09-28T18:08:53.289Z,9.70
2022-09-28T18:14:55.239Z,9.70
2022-09-28T18:20:57.157Z,9.70
2022-09-28T18:26:59.196Z,9.60
2022-09-28T18:33:01.336Z,9.70
2022-09-28T18:39:28.459Z,9.60
2022-09-28T18:45:30.362Z,9.60
2022-09-28T18:51:33.763Z,9.50
2022-09-28T18:57:36.031Z,9.50
2022-09-28T19:03:38.048Z,9.50
2022-09-28T19:09:43.976Z,9.50
2022-09-28T19:15:48.388Z,9.40
2022-09-28T19:21:50.841Z,9.40
2022-09-28T19:27:53.248Z,9.30
2022-09-28T19:33:55.309Z,9.40
2022-09-28T19:40:05.909Z,9.30
2022-09-28T19:46:15.836Z,9.30
2022-09-28T19:52:20.617Z,9.30
2022-09-28T19:58:37.187Z,9.20
2022-09-28T20:04:41.828Z,9.20
2022-09-28T20:10:52.321Z,9.10
2022-09-28T20:16:54.180Z,9.10
2022-09-28T20:22:56.277Z,9.00
2022-09-28T20:28:58.360Z,9.00
2022-09-28T20:35:00.316Z,8.90
2022-09-28T20:41:02.860Z,8.80
2022-09-28T20:47:04.809Z,8.80
2022-09-28T20:53:06.702Z,8.70
2022-09-28T20:59:11.671Z,8.60
2022-09-28T21:05:13.601Z,8.50
2022-09-28T21:11:18.063Z,8.40
2022-09-28T21:23:37.340Z,8.30
2022-09-28T21:35:55.702Z,8.00
2022-09-28T21:41:57.621Z,7.80
2022-09-28T21:47:59.537Z,7.70
2022-09-28T21:54:01.478Z,7.60
2022-09-28T22:00:04.026Z,7.40
2022-09-28T22:06:07.446Z,7.30
2022-09-28T22:12:09.537Z,7.20
2022-09-28T22:18:11.567Z,7.00
2022-09-28T22:24:13.662Z,6.90
2022-09-28T22:30:15.761Z,6.90
2022-09-28T22:36:17.726Z,6.90
2022-09-28T22:42:20.655Z,6.90
2022-09-28T22:48:23.541Z,6.80
2022-09-28T22:54:25.480Z,6.70
2022-09-28T23:00:28.539Z,6.40
2022-09-28T23:06:30.961Z,6.30
2022-09-28T23:12:35.665Z,6.30
2022-09-28T23:18:40.966Z,6.20
2022-09-28T23:24:42.882Z,6.20
2022-09-28T23:30:44.756Z,6.30
2022-09-28T23:36:46.636Z,6.30
2022-09-28T23:42:48.573Z,6.30
2022-09-28T23:48:50.573Z,6.40
2022-09-28T23:54:52.438Z,6.40
